Albin, Wyoming
Current Conditions -  °F | °C
As of 12:55 AM on Thursday 27 Nov 2014 (Local Time) from K82V Reporting Station
Clear Clear  
Wind Chill: 10°   Ceiling: Unl
Heat Index: 19°   Visibility: 10mi
Dew Point: 18°   Wind: 7mph
Humidity: 93%   Direction: 210°SSW
Pressure: 30.23"   Gusts: NA
Location:  41.42°N, 104.1°W
Report Text: K82V 270755Z AUTO 21006KT 10SM CLR M07/M08 A3023 RMK AO2
Loading
Personal Weather Stations






























Interactive Weather Map New forecast layout! Learn more

10-Day Weather Forecast

Advertisements
Track Severe Weather on mobile